sensor_id;sensor_type;location;lat;lon;timestamp;P1;durP1;ratioP1;P2;durP2;ratioP2
13693;SDS011;6919;52.344;14.518;2023-08-24T00:01:46;2.33;;;1.50;;
13693;SDS011;6919;52.344;14.518;2023-08-24T00:04:16;2.07;;;1.50;;
13693;SDS011;6919;52.344;14.518;2023-08-24T00:06:44;1.80;;;1.67;;
13693;SDS011;6919;52.344;14.518;2023-08-24T00:09:12;1.50;;;1.40;;
13693;SDS011;6919;52.344;14.518;2023-08-24T00:11:42;3.77;;;1.33;;
13693;SDS011;6919;52.344;14.518;2023-08-24T00:14:10;1.77;;;1.40;;
13693;SDS011;6919;52.344;14.518;2023-08-24T00:16:38;2.17;;;1.60;;
13693;SDS011;6919;52.344;14.518;2023-08-24T00:19:08;4.20;;;1.60;;
13693;SDS011;6919;52.344;14.518;2023-08-24T00:21:38;1.40;;;1.30;;
13693;SDS011;6919;52.344;14.518;2023-08-24T00:24:06;1.90;;;1.60;;
13693;SDS011;6919;52.344;14.518;2023-08-24T00:26:34;3.00;;;1.40;;
13693;SDS011;6919;52.344;14.518;2023-08-24T00:29:03;2.93;;;1.60;;
13693;SDS011;6919;52.344;14.518;2023-08-24T00:31:31;1.73;;;1.40;;
13693;SDS011;6919;52.344;14.518;2023-08-24T00:33:59;2.30;;;1.50;;
13693;SDS011;6919;52.344;14.518;2023-08-24T00:36:28;2.07;;;1.50;;
13693;SDS011;6919;52.344;14.518;2023-08-24T00:38:57;1.77;;;1.67;;
13693;SDS011;6919;52.344;14.518;2023-08-24T00:41:26;1.53;;;1.40;;
13693;SDS011;6919;52.344;14.518;2023-08-24T00:43:54;2.20;;;1.60;;
13693;SDS011;6919;52.344;14.518;2023-08-24T00:46:22;1.50;;;1.40;;
13693;SDS011;6919;52.344;14.518;2023-08-24T00:48:53;1.43;;;1.30;;
13693;SDS011;6919;52.344;14.518;2023-08-24T00:51:23;3.03;;;1.80;;
13693;SDS011;6919;52.344;14.518;2023-08-24T00:53:52;1.97;;;1.60;;
13693;SDS011;6919;52.344;14.518;2023-08-24T00:56:22;2.43;;;1.70;;
13693;SDS011;6919;52.344;14.518;2023-08-24T00:58:51;1.67;;;1.53;;
13693;SDS011;6919;52.344;14.518;2023-08-24T01:01:22;1.47;;;1.33;;
13693;SDS011;6919;52.344;14.518;2023-08-24T01:03:51;1.63;;;1.53;;
13693;SDS011;6919;52.344;14.518;2023-08-24T01:06:19;1.53;;;1.33;;
13693;SDS011;6919;52.344;14.518;2023-08-24T01:08:48;2.47;;;1.70;;
13693;SDS011;6919;52.344;14.518;2023-08-24T01:11:19;1.67;;;1.43;;
13693;SDS011;6919;52.344;14.518;2023-08-24T01:13:59;1.63;;;1.53;;
13693;SDS011;6919;52.344;14.518;2023-08-24T01:16:43;2.37;;;1.97;;
13693;SDS011;6919;52.344;14.518;2023-08-24T01:19:19;2.17;;;1.63;;
13693;SDS011;6919;52.344;14.518;2023-08-24T01:22:05;2.40;;;1.70;;
13693;SDS011;6919;52.344;14.518;2023-08-24T01:24:50;2.03;;;1.53;;
13693;SDS011;6919;52.344;14.518;2023-08-24T01:27:33;2.50;;;1.83;;
13693;SDS011;6919;52.344;14.518;2023-08-24T01:30:04;1.50;;;1.40;;
13693;SDS011;6919;52.344;14.518;2023-08-24T01:32:34;2.03;;;1.70;;
13693;SDS011;6919;52.344;14.518;2023-08-24T01:35:04;1.33;;;1.23;;
13693;SDS011;6919;52.344;14.518;2023-08-24T01:37:35;1.57;;;1.47;;
13693;SDS011;6919;52.344;14.518;2023-08-24T01:40:05;1.57;;;1.27;;
13693;SDS011;6919;52.344;14.518;2023-08-24T01:42:42;2.03;;;1.87;;
13693;SDS011;6919;52.344;14.518;2023-08-24T01:45:19;2.50;;;1.67;;
13693;SDS011;6919;52.344;14.518;2023-08-24T01:47:51;1.37;;;1.27;;
13693;SDS011;6919;52.344;14.518;2023-08-24T01:50:22;2.20;;;1.50;;
13693;SDS011;6919;52.344;14.518;2023-08-24T01:52:52;1.50;;;1.40;;
13693;SDS011;6919;52.344;14.518;2023-08-24T01:55:20;3.37;;;1.70;;
13693;SDS011;6919;52.344;14.518;2023-08-24T01:57:50;1.90;;;1.60;;
13693;SDS011;6919;52.344;14.518;2023-08-24T02:00:19;1.80;;;1.50;;
13693;SDS011;6919;52.344;14.518;2023-08-24T02:02:47;1.50;;;1.20;;
13693;SDS011;6919;52.344;14.518;2023-08-24T02:05:15;2.30;;;1.53;;
13693;SDS011;6919;52.344;14.518;2023-08-24T02:07:44;3.47;;;1.80;;
13693;SDS011;6919;52.344;14.518;2023-08-24T02:10:12;2.03;;;1.73;;
13693;SDS011;6919;52.344;14.518;2023-08-24T02:12:40;1.60;;;1.50;;
13693;SDS011;6919;52.344;14.518;2023-08-24T02:15:10;1.60;;;1.50;;
13693;SDS011;6919;52.344;14.518;2023-08-24T02:17:38;2.10;;;1.67;;
13693;SDS011;6919;52.344;14.518;2023-08-24T02:20:07;2.97;;;1.83;;
13693;SDS011;6919;52.344;14.518;2023-08-24T02:22:37;1.80;;;1.37;;
13693;SDS011;6919;52.344;14.518;2023-08-24T02:25:06;1.90;;;1.53;;
13693;SDS011;6919;52.344;14.518;2023-08-24T02:27:36;2.90;;;1.40;;
13693;SDS011;6919;52.344;14.518;2023-08-24T02:30:05;2.17;;;1.70;;
13693;SDS011;6919;52.344;14.518;2023-08-24T02:32:36;2.33;;;1.83;;
13693;SDS011;6919;52.344;14.518;2023-08-24T02:35:05;2.03;;;1.70;;
13693;SDS011;6919;52.344;14.518;2023-08-24T02:37:35;2.37;;;1.70;;
13693;SDS011;6919;52.344;14.518;2023-08-24T02:40:03;1.87;;;1.50;;
13693;SDS011;6919;52.344;14.518;2023-08-24T02:42:33;1.77;;;1.67;;
13693;SDS011;6919;52.344;14.518;2023-08-24T02:45:01;3.10;;;2.10;;
13693;SDS011;6919;52.344;14.518;2023-08-24T02:47:30;2.77;;;2.30;;
13693;SDS011;6919;52.344;14.518;2023-08-24T02:50:00;4.60;;;2.60;;
13693;SDS011;6919;52.344;14.518;2023-08-24T02:52:28;2.47;;;2.27;;
13693;SDS011;6919;52.344;14.518;2023-08-24T02:54:57;3.73;;;2.27;;
13693;SDS011;6919;52.344;14.518;2023-08-24T02:57:25;2.30;;;2.10;;
13693;SDS011;6919;52.344;14.518;2023-08-24T02:59:53;2.67;;;2.33;;
13693;SDS011;6919;52.344;14.518;2023-08-24T03:02:22;2.20;;;1.90;;
13693;SDS011;6919;52.344;14.518;2023-08-24T03:04:50;2.60;;;2.00;;
13693;SDS011;6919;52.344;14.518;2023-08-24T03:07:20;3.43;;;2.10;;
13693;SDS011;6919;52.344;14.518;2023-08-24T03:09:48;2.93;;;2.30;;
13693;SDS011;6919;52.344;14.518;2023-08-24T03:12:17;4.73;;;1.97;;
13693;SDS011;6919;52.344;14.518;2023-08-24T03:14:45;4.30;;;2.50;;
13693;SDS011;6919;52.344;14.518;2023-08-24T03:17:13;3.03;;;2.30;;
13693;SDS011;6919;52.344;14.518;2023-08-24T03:19:42;2.67;;;2.10;;
13693;SDS011;6919;52.344;14.518;2023-08-24T03:22:10;4.03;;;2.00;;
13693;SDS011;6919;52.344;14.518;2023-08-24T03:24:40;2.43;;;2.20;;
13693;SDS011;6919;52.344;14.518;2023-08-24T03:27:08;3.00;;;2.10;;
13693;SDS011;6919;52.344;14.518;2023-08-24T03:29:36;2.80;;;2.00;;
13693;SDS011;6919;52.344;14.518;2023-08-24T03:32:05;3.03;;;2.47;;
13693;SDS011;6919;52.344;14.518;2023-08-24T03:34:33;2.20;;;2.00;;
13693;SDS011;6919;52.344;14.518;2023-08-24T03:37:01;2.73;;;2.43;;
13693;SDS011;6919;52.344;14.518;2023-08-24T03:39:30;2.60;;;2.20;;
13693;SDS011;6919;52.344;14.518;2023-08-24T03:41:59;7.00;;;2.50;;
13693;SDS011;6919;52.344;14.518;2023-08-24T03:44:28;3.13;;;2.80;;
13693;SDS011;6919;52.344;14.518;2023-08-24T03:46:56;5.93;;;2.93;;
13693;SDS011;6919;52.344;14.518;2023-08-24T03:49:24;3.33;;;2.77;;
13693;SDS011;6919;52.344;14.518;2023-08-24T03:51:53;3.97;;;2.80;;
13693;SDS011;6919;52.344;14.518;2023-08-24T03:54:21;4.93;;;3.10;;
13693;SDS011;6919;52.344;14.518;2023-08-24T03:56:49;3.50;;;2.83;;
13693;SDS011;6919;52.344;14.518;2023-08-24T03:59:19;2.50;;;2.30;;
13693;SDS011;6919;52.344;14.518;2023-08-24T04:01:47;4.67;;;2.87;;
13693;SDS011;6919;52.344;14.518;2023-08-24T04:04:16;3.47;;;2.90;;
13693;SDS011;6919;52.344;14.518;2023-08-24T04:06:44;4.27;;;3.50;;
13693;SDS011;6919;52.344;14.518;2023-08-24T04:09:12;4.53;;;3.07;;
13693;SDS011;6919;52.344;14.518;2023-08-24T04:11:41;4.07;;;2.90;;
13693;SDS011;6919;52.344;14.518;2023-08-24T04:14:09;6.20;;;2.83;;
13693;SDS011;6919;52.344;14.518;2023-08-24T04:16:39;5.03;;;2.87;;
13693;SDS011;6919;52.344;14.518;2023-08-24T04:19:08;4.83;;;2.80;;
13693;SDS011;6919;52.344;14.518;2023-08-24T04:21:36;3.27;;;2.90;;
13693;SDS011;6919;52.344;14.518;2023-08-24T04:24:04;3.47;;;3.10;;
13693;SDS011;6919;52.344;14.518;2023-08-24T04:26:34;3.80;;;2.97;;
13693;SDS011;6919;52.344;14.518;2023-08-24T04:29:02;2.90;;;2.60;;
13693;SDS011;6919;52.344;14.518;2023-08-24T04:31:31;3.73;;;2.87;;
13693;SDS011;6919;52.344;14.518;2023-08-24T04:34:00;3.40;;;2.83;;
13693;SDS011;6919;52.344;14.518;2023-08-24T04:36:30;3.57;;;2.93;;
13693;SDS011;6919;52.344;14.518;2023-08-24T04:38:58;2.97;;;2.43;;
13693;SDS011;6919;52.344;14.518;2023-08-24T04:41:27;3.10;;;2.70;;
13693;SDS011;6919;52.344;14.518;2023-08-24T04:43:55;4.67;;;2.90;;
13693;SDS011;6919;52.344;14.518;2023-08-24T04:46:23;3.77;;;2.67;;
13693;SDS011;6919;52.344;14.518;2023-08-24T04:48:52;4.23;;;2.27;;
13693;SDS011;6919;52.344;14.518;2023-08-24T04:51:22;3.03;;;2.50;;
13693;SDS011;6919;52.344;14.518;2023-08-24T04:53:51;3.70;;;2.60;;
13693;SDS011;6919;52.344;14.518;2023-08-24T04:56:19;3.70;;;2.83;;
13693;SDS011;6919;52.344;14.518;2023-08-24T04:58:53;3.27;;;2.47;;
13693;SDS011;6919;52.344;14.518;2023-08-24T05:01:23;3.37;;;2.07;;
13693;SDS011;6919;52.344;14.518;2023-08-24T05:03:52;3.47;;;2.80;;
13693;SDS011;6919;52.344;14.518;2023-08-24T05:06:24;3.07;;;2.37;;
13693;SDS011;6919;52.344;14.518;2023-08-24T05:08:52;3.13;;;2.70;;
13693;SDS011;6919;52.344;14.518;2023-08-24T05:11:22;2.43;;;2.23;;
13693;SDS011;6919;52.344;14.518;2023-08-24T05:13:52;3.93;;;2.53;;
13693;SDS011;6919;52.344;14.518;2023-08-24T05:16:20;3.20;;;2.23;;
13693;SDS011;6919;52.344;14.518;2023-08-24T05:18:49;4.73;;;2.50;;
13693;SDS011;6919;52.344;14.518;2023-08-24T05:21:17;3.47;;;2.43;;
13693;SDS011;6919;52.344;14.518;2023-08-24T05:23:47;2.40;;;2.20;;
13693;SDS011;6919;52.344;14.518;2023-08-24T05:26:15;4.57;;;2.67;;
13693;SDS011;6919;52.344;14.518;2023-08-24T05:28:49;2.67;;;2.30;;
13693;SDS011;6919;52.344;14.518;2023-08-24T05:31:17;4.80;;;2.70;;
13693;SDS011;6919;52.344;14.518;2023-08-24T05:33:47;3.63;;;2.50;;
13693;SDS011;6919;52.344;14.518;2023-08-24T05:36:15;3.50;;;2.77;;
13693;SDS011;6919;52.344;14.518;2023-08-24T05:38:44;2.60;;;2.40;;
13693;SDS011;6919;52.344;14.518;2023-08-24T05:41:32;3.37;;;2.27;;
13693;SDS011;6919;52.344;14.518;2023-08-24T05:44:03;3.63;;;2.47;;
13693;SDS011;6919;52.344;14.518;2023-08-24T05:46:31;2.90;;;2.40;;
13693;SDS011;6919;52.344;14.518;2023-08-24T05:49:00;2.27;;;2.07;;
13693;SDS011;6919;52.344;14.518;2023-08-24T05:51:28;2.73;;;2.30;;
13693;SDS011;6919;52.344;14.518;2023-08-24T05:53:56;2.37;;;2.17;;
13693;SDS011;6919;52.344;14.518;2023-08-24T05:56:25;2.90;;;2.30;;
13693;SDS011;6919;52.344;14.518;2023-08-24T05:58:55;2.33;;;2.13;;
13693;SDS011;6919;52.344;14.518;2023-08-24T06:01:26;5.80;;;2.20;;
13693;SDS011;6919;52.344;14.518;2023-08-24T06:03:54;2.20;;;2.00;;
13693;SDS011;6919;52.344;14.518;2023-08-24T06:06:22;3.37;;;2.00;;
13693;SDS011;6919;52.344;14.518;2023-08-24T06:08:51;2.37;;;1.97;;
13693;SDS011;6919;52.344;14.518;2023-08-24T06:11:19;3.20;;;2.10;;
13693;SDS011;6919;52.344;14.518;2023-08-24T06:13:47;3.17;;;2.20;;
13693;SDS011;6919;52.344;14.518;2023-08-24T06:16:17;2.70;;;2.17;;
13693;SDS011;6919;52.344;14.518;2023-08-24T06:18:45;2.60;;;2.17;;
13693;SDS011;6919;52.344;14.518;2023-08-24T06:21:13;2.10;;;1.80;;
13693;SDS011;6919;52.344;14.518;2023-08-24T06:23:42;2.10;;;1.77;;
13693;SDS011;6919;52.344;14.518;2023-08-24T06:26:10;3.80;;;2.10;;
13693;SDS011;6919;52.344;14.518;2023-08-24T06:28:39;5.40;;;2.20;;
13693;SDS011;6919;52.344;14.518;2023-08-24T06:31:07;3.20;;;1.90;;
13693;SDS011;6919;52.344;14.518;2023-08-24T06:33:37;3.20;;;2.33;;
13693;SDS011;6919;52.344;14.518;2023-08-24T06:36:06;3.43;;;2.70;;
13693;SDS011;6919;52.344;14.518;2023-08-24T06:38:35;5.27;;;3.57;;
13693;SDS011;6919;52.344;14.518;2023-08-24T06:41:03;3.07;;;2.63;;
13693;SDS011;6919;52.344;14.518;2023-08-24T06:43:32;4.73;;;2.83;;
13693;SDS011;6919;52.344;14.518;2023-08-24T06:46:00;5.60;;;3.30;;
13693;SDS011;6919;52.344;14.518;2023-08-24T06:48:29;3.67;;;2.70;;
13693;SDS011;6919;52.344;14.518;2023-08-24T06:50:59;3.13;;;2.63;;
13693;SDS011;6919;52.344;14.518;2023-08-24T06:53:27;3.73;;;3.03;;
13693;SDS011;6919;52.344;14.518;2023-08-24T06:55:55;2.97;;;2.37;;
13693;SDS011;6919;52.344;14.518;2023-08-24T06:58:24;3.07;;;2.43;;
13693;SDS011;6919;52.344;14.518;2023-08-24T07:00:52;2.57;;;2.10;;
13693;SDS011;6919;52.344;14.518;2023-08-24T07:03:22;4.13;;;2.60;;
13693;SDS011;6919;52.344;14.518;2023-08-24T07:05:50;3.43;;;2.50;;
13693;SDS011;6919;52.344;14.518;2023-08-24T07:08:20;2.20;;;2.00;;
13693;SDS011;6919;52.344;14.518;2023-08-24T07:10:48;2.97;;;2.23;;
13693;SDS011;6919;52.344;14.518;2023-08-24T07:13:16;2.40;;;1.80;;
13693;SDS011;6919;52.344;14.518;2023-08-24T07:15:45;2.43;;;2.20;;
13693;SDS011;6919;52.344;14.518;2023-08-24T07:18:13;1.53;;;1.43;;
13693;SDS011;6919;52.344;14.518;2023-08-24T07:20:41;2.00;;;1.80;;
13693;SDS011;6919;52.344;14.518;2023-08-24T07:23:09;2.57;;;2.20;;
13693;SDS011;6919;52.344;14.518;2023-08-24T07:25:39;3.50;;;1.80;;
13693;SDS011;6919;52.344;14.518;2023-08-24T07:28:08;1.53;;;1.43;;
13693;SDS011;6919;52.344;14.518;2023-08-24T07:30:36;1.63;;;1.20;;
13693;SDS011;6919;52.344;14.518;2023-08-24T07:33:05;8.30;;;1.70;;
13693;SDS011;6919;52.344;14.518;2023-08-24T07:35:33;1.70;;;1.60;;
13693;SDS011;6919;52.344;14.518;2023-08-24T07:38:02;1.77;;;1.40;;
13693;SDS011;6919;52.344;14.518;2023-08-24T07:40:31;2.10;;;1.50;;
13693;SDS011;6919;52.344;14.518;2023-08-24T07:43:00;1.53;;;1.40;;
13693;SDS011;6919;52.344;14.518;2023-08-24T07:45:29;1.67;;;1.40;;
13693;SDS011;6919;52.344;14.518;2023-08-24T07:47:57;2.20;;;1.30;;
13693;SDS011;6919;52.344;14.518;2023-08-24T07:50:25;1.83;;;1.47;;
13693;SDS011;6919;52.344;14.518;2023-08-24T07:52:54;1.43;;;1.33;;
13693;SDS011;6919;52.344;14.518;2023-08-24T07:55:23;2.33;;;1.50;;
13693;SDS011;6919;52.344;14.518;2023-08-24T07:57:52;1.93;;;1.60;;
13693;SDS011;6919;52.344;14.518;2023-08-24T08:00:21;2.80;;;1.87;;
13693;SDS011;6919;52.344;14.518;2023-08-24T08:02:51;2.87;;;1.60;;
13693;SDS011;6919;52.344;14.518;2023-08-24T08:05:20;2.83;;;1.77;;
13693;SDS011;6919;52.344;14.518;2023-08-24T08:07:49;3.00;;;1.93;;
13693;SDS011;6919;52.344;14.518;2023-08-24T08:10:18;5.53;;;1.73;;
13693;SDS011;6919;52.344;14.518;2023-08-24T08:12:47;2.40;;;1.80;;
13693;SDS011;6919;52.344;14.518;2023-08-24T08:15:16;2.33;;;1.70;;
13693;SDS011;6919;52.344;14.518;2023-08-24T08:17:45;3.33;;;2.07;;
13693;SDS011;6919;52.344;14.518;2023-08-24T08:20:14;2.40;;;2.00;;
13693;SDS011;6919;52.344;14.518;2023-08-24T08:22:43;2.20;;;1.87;;
13693;SDS011;6919;52.344;14.518;2023-08-24T08:25:12;2.03;;;1.80;;
13693;SDS011;6919;52.344;14.518;2023-08-24T08:27:40;1.80;;;1.70;;
13693;SDS011;6919;52.344;14.518;2023-08-24T08:30:09;2.17;;;1.60;;
13693;SDS011;6919;52.344;14.518;2023-08-24T08:32:38;1.53;;;1.30;;
13693;SDS011;6919;52.344;14.518;2023-08-24T08:35:08;2.00;;;1.80;;
13693;SDS011;6919;52.344;14.518;2023-08-24T08:37:37;1.50;;;1.40;;
13693;SDS011;6919;52.344;14.518;2023-08-24T08:40:08;1.20;;;1.10;;
13693;SDS011;6919;52.344;14.518;2023-08-24T08:42:38;1.50;;;1.40;;
13693;SDS011;6919;52.344;14.518;2023-08-24T08:45:08;2.07;;;1.47;;
13693;SDS011;6919;52.344;14.518;2023-08-24T08:47:37;1.90;;;1.40;;
13693;SDS011;6919;52.344;14.518;2023-08-24T08:50:09;2.00;;;1.57;;
13693;SDS011;6919;52.344;14.518;2023-08-24T08:52:38;1.60;;;1.43;;
13693;SDS011;6919;52.344;14.518;2023-08-24T08:55:06;2.37;;;1.50;;
13693;SDS011;6919;52.344;14.518;2023-08-24T08:57:37;1.50;;;1.40;;
13693;SDS011;6919;52.344;14.518;2023-08-24T09:00:09;2.60;;;1.50;;
13693;SDS011;6919;52.344;14.518;2023-08-24T09:02:40;2.90;;;1.33;;
13693;SDS011;6919;52.344;14.518;2023-08-24T09:05:14;1.43;;;1.30;;
13693;SDS011;6919;52.344;14.518;2023-08-24T09:07:43;2.00;;;1.57;;
13693;SDS011;6919;52.344;14.518;2023-08-24T09:10:12;3.00;;;1.87;;
13693;SDS011;6919;52.344;14.518;2023-08-24T09:12:41;1.40;;;1.30;;
13693;SDS011;6919;52.344;14.518;2023-08-24T09:15:09;1.40;;;1.30;;
13693;SDS011;6919;52.344;14.518;2023-08-24T09:17:41;1.40;;;1.20;;
13693;SDS011;6919;52.344;14.518;2023-08-24T09:20:11;2.03;;;1.30;;
13693;SDS011;6919;52.344;14.518;2023-08-24T09:22:42;1.50;;;1.40;;
13693;SDS011;6919;52.344;14.518;2023-08-24T09:25:11;1.93;;;1.50;;
13693;SDS011;6919;52.344;14.518;2023-08-24T09:27:39;1.80;;;1.43;;
13693;SDS011;6919;52.344;14.518;2023-08-24T09:30:09;1.70;;;1.40;;
13693;SDS011;6919;52.344;14.518;2023-08-24T09:32:39;1.43;;;1.17;;
13693;SDS011;6919;52.344;14.518;2023-08-24T09:35:09;2.20;;;1.40;;
13693;SDS011;6919;52.344;14.518;2023-08-24T09:37:39;3.27;;;1.50;;
13693;SDS011;6919;52.344;14.518;2023-08-24T09:40:11;1.85;;;1.52;;
13693;SDS011;6919;52.344;14.518;2023-08-24T09:42:40;1.45;;;1.35;;
13693;SDS011;6919;52.344;14.518;2023-08-24T09:45:11;1.47;;;1.30;;
13693;SDS011;6919;52.344;14.518;2023-08-24T09:47:44;1.87;;;1.53;;
13693;SDS011;6919;52.344;14.518;2023-08-24T09:50:16;1.40;;;1.27;;
13693;SDS011;6919;52.344;14.518;2023-08-24T09:52:47;2.53;;;1.80;;
13693;SDS011;6919;52.344;14.518;2023-08-24T09:55:20;1.52;;;1.20;;
13693;SDS011;6919;52.344;14.518;2023-08-24T09:57:52;2.85;;;1.15;;
13693;SDS011;6919;52.344;14.518;2023-08-24T10:00:23;2.10;;;1.38;;
13693;SDS011;6919;52.344;14.518;2023-08-24T10:02:54;2.00;;;1.48;;
13693;SDS011;6919;52.344;14.518;2023-08-24T10:05:24;1.48;;;1.35;;
13693;SDS011;6919;52.344;14.518;2023-08-24T10:08:15;1.60;;;1.48;;
13693;SDS011;6919;52.344;14.518;2023-08-24T10:10:50;2.13;;;1.40;;
13693;SDS011;6919;52.344;14.518;2023-08-24T10:13:27;1.42;;;1.33;;
13693;SDS011;6919;52.344;14.518;2023-08-24T10:16:06;2.03;;;1.40;;
13693;SDS011;6919;52.344;14.518;2023-08-24T10:18:36;2.45;;;1.63;;
13693;SDS011;6919;52.344;14.518;2023-08-24T10:21:05;2.08;;;1.60;;
13693;SDS011;6919;52.344;14.518;2023-08-24T10:23:35;3.50;;;1.42;;
13693;SDS011;6919;52.344;14.518;2023-08-24T10:26:05;2.95;;;1.30;;
13693;SDS011;6919;52.344;14.518;2023-08-24T10:28:36;1.10;;;1.00;;
13693;SDS011;6919;52.344;14.518;2023-08-24T10:31:04;3.67;;;1.33;;
13693;SDS011;6919;52.344;14.518;2023-08-24T10:33:34;2.58;;;1.20;;
13693;SDS011;6919;52.344;14.518;2023-08-24T10:36:04;1.73;;;1.45;;
13693;SDS011;6919;52.344;14.518;2023-08-24T10:38:35;2.10;;;1.45;;
13693;SDS011;6919;52.344;14.518;2023-08-24T10:41:08;1.45;;;1.27;;
13693;SDS011;6919;52.344;14.518;2023-08-24T10:43:41;2.40;;;1.50;;
13693;SDS011;6919;52.344;14.518;2023-08-24T10:46:17;2.23;;;1.60;;
13693;SDS011;6919;52.344;14.518;2023-08-24T10:48:58;1.70;;;1.47;;
13693;SDS011;6919;52.344;14.518;2023-08-24T10:51:28;1.23;;;1.13;;
13693;SDS011;6919;52.344;14.518;2023-08-24T10:54:00;2.95;;;1.40;;
13693;SDS011;6919;52.344;14.518;2023-08-24T10:56:32;2.03;;;1.80;;
13693;SDS011;6919;52.344;14.518;2023-08-24T10:59:11;1.55;;;1.45;;
13693;SDS011;6919;52.344;14.518;2023-08-24T11:01:41;3.57;;;1.80;;
13693;SDS011;6919;52.344;14.518;2023-08-24T11:04:11;2.22;;;1.67;;
13693;SDS011;6919;52.344;14.518;2023-08-24T11:06:52;1.77;;;1.30;;
13693;SDS011;6919;52.344;14.518;2023-08-24T11:09:24;1.20;;;1.10;;
13693;SDS011;6919;52.344;14.518;2023-08-24T11:11:57;1.75;;;1.50;;
13693;SDS011;6919;52.344;14.518;2023-08-24T11:14:28;3.92;;;1.30;;
13693;SDS011;6919;52.344;14.518;2023-08-24T11:17:00;1.90;;;1.50;;
13693;SDS011;6919;52.344;14.518;2023-08-24T11:19:47;1.73;;;1.50;;
13693;SDS011;6919;52.344;14.518;2023-08-24T11:22:17;2.20;;;1.60;;
13693;SDS011;6919;52.344;14.518;2023-08-24T11:24:46;1.57;;;1.10;;
13693;SDS011;6919;52.344;14.518;2023-08-24T11:27:15;2.60;;;1.50;;
13693;SDS011;6919;52.344;14.518;2023-08-24T11:29:43;6.05;;;1.58;;
13693;SDS011;6919;52.344;14.518;2023-08-24T11:32:11;1.33;;;1.20;;
13693;SDS011;6919;52.344;14.518;2023-08-24T11:34:40;2.47;;;1.30;;
13693;SDS011;6919;52.344;14.518;2023-08-24T11:37:18;1.20;;;1.10;;
13693;SDS011;6919;52.344;14.518;2023-08-24T11:39:48;1.50;;;1.40;;
13693;SDS011;6919;52.344;14.518;2023-08-24T11:42:16;1.23;;;1.13;;
13693;SDS011;6919;52.344;14.518;2023-08-24T11:44:44;2.10;;;1.30;;
13693;SDS011;6919;52.344;14.518;2023-08-24T11:47:14;0.93;;;0.90;;
13693;SDS011;6919;52.344;14.518;2023-08-24T11:49:43;2.42;;;1.20;;
13693;SDS011;6919;52.344;14.518;2023-08-24T11:52:12;1.90;;;1.05;;
13693;SDS011;6919;52.344;14.518;2023-08-24T11:54:42;1.48;;;1.10;;
13693;SDS011;6919;52.344;14.518;2023-08-24T11:57:13;1.65;;;1.30;;
13693;SDS011;6919;52.344;14.518;2023-08-24T11:59:41;2.15;;;1.55;;
13693;SDS011;6919;52.344;14.518;2023-08-24T12:02:10;2.28;;;1.58;;
13693;SDS011;6919;52.344;14.518;2023-08-24T12:04:40;1.63;;;1.48;;
13693;SDS011;6919;52.344;14.518;2023-08-24T12:07:10;2.20;;;1.50;;
13693;SDS011;6919;52.344;14.518;2023-08-24T12:09:39;1.52;;;1.38;;
13693;SDS011;6919;52.344;14.518;2023-08-24T12:12:11;2.13;;;1.58;;
13693;SDS011;6919;52.344;14.518;2023-08-24T12:14:42;2.17;;;1.60;;
13693;SDS011;6919;52.344;14.518;2023-08-24T12:17:13;1.70;;;1.05;;
13693;SDS011;6919;52.344;14.518;2023-08-24T12:19:44;2.22;;;1.25;;
13693;SDS011;6919;52.344;14.518;2023-08-24T12:22:24;1.42;;;1.10;;
13693;SDS011;6919;52.344;14.518;2023-08-24T12:24:53;1.33;;;1.23;;
13693;SDS011;6919;52.344;14.518;2023-08-24T12:27:23;1.30;;;1.20;;
13693;SDS011;6919;52.344;14.518;2023-08-24T12:29:53;1.83;;;1.05;;
13693;SDS011;6919;52.344;14.518;2023-08-24T12:32:21;1.20;;;1.10;;
13693;SDS011;6919;52.344;14.518;2023-08-24T12:34:52;1.40;;;1.13;;
13693;SDS011;6919;52.344;14.518;2023-08-24T12:37:21;1.98;;;1.20;;
13693;SDS011;6919;52.344;14.518;2023-08-24T12:39:49;1.77;;;1.17;;
13693;SDS011;6919;52.344;14.518;2023-08-24T12:42:18;1.85;;;0.98;;
13693;SDS011;6919;52.344;14.518;2023-08-24T12:44:47;1.88;;;1.30;;
13693;SDS011;6919;52.344;14.518;2023-08-24T12:47:15;1.67;;;1.30;;
13693;SDS011;6919;52.344;14.518;2023-08-24T12:49:44;2.20;;;1.63;;
13693;SDS011;6919;52.344;14.518;2023-08-24T12:52:14;1.73;;;1.30;;
13693;SDS011;6919;52.344;14.518;2023-08-24T12:54:42;1.52;;;1.17;;
13693;SDS011;6919;52.344;14.518;2023-08-24T12:57:10;1.50;;;1.30;;
13693;SDS011;6919;52.344;14.518;2023-08-24T12:59:39;1.42;;;1.27;;
13693;SDS011;6919;52.344;14.518;2023-08-24T13:02:08;2.75;;;1.40;;
13693;SDS011;6919;52.344;14.518;2023-08-24T13:04:50;3.05;;;1.45;;
13693;SDS011;6919;52.344;14.518;2023-08-24T13:07:18;1.38;;;1.20;;
13693;SDS011;6919;52.344;14.518;2023-08-24T13:09:46;1.38;;;1.10;;
13693;SDS011;6919;52.344;14.518;2023-08-24T13:12:15;1.50;;;1.40;;
13693;SDS011;6919;52.344;14.518;2023-08-24T13:14:43;1.13;;;1.02;;
13693;SDS011;6919;52.344;14.518;2023-08-24T13:17:13;1.73;;;1.35;;
13693;SDS011;6919;52.344;14.518;2023-08-24T13:19:41;5.03;;;1.50;;
13693;SDS011;6919;52.344;14.518;2023-08-24T13:22:11;1.10;;;1.00;;
13693;SDS011;6919;52.344;14.518;2023-08-24T13:24:39;1.30;;;1.20;;
13693;SDS011;6919;52.344;14.518;2023-08-24T13:27:10;1.30;;;1.17;;
13693;SDS011;6919;52.344;14.518;2023-08-24T13:29:38;1.38;;;1.10;;
13693;SDS011;6919;52.344;14.518;2023-08-24T13:32:07;1.88;;;1.25;;
13693;SDS011;6919;52.344;14.518;2023-08-24T13:34:37;1.35;;;1.20;;
13693;SDS011;6919;52.344;14.518;2023-08-24T13:37:05;1.10;;;1.00;;
13693;SDS011;6919;52.344;14.518;2023-08-24T13:39:34;1.38;;;1.25;;
13693;SDS011;6919;52.344;14.518;2023-08-24T13:42:02;1.55;;;1.30;;
13693;SDS011;6919;52.344;14.518;2023-08-24T13:44:30;1.30;;;1.20;;
13693;SDS011;6919;52.344;14.518;2023-08-24T13:46:59;2.42;;;1.30;;
13693;SDS011;6919;52.344;14.518;2023-08-24T13:49:27;1.73;;;1.30;;
13693;SDS011;6919;52.344;14.518;2023-08-24T13:52:04;1.25;;;1.15;;
13693;SDS011;6919;52.344;14.518;2023-08-24T13:54:33;1.98;;;1.10;;
13693;SDS011;6919;52.344;14.518;2023-08-24T13:57:02;1.35;;;1.25;;
13693;SDS011;6919;52.344;14.518;2023-08-24T13:59:31;3.17;;;1.10;;
13693;SDS011;6919;52.344;14.518;2023-08-24T14:02:00;1.42;;;1.33;;
13693;SDS011;6919;52.344;14.518;2023-08-24T14:04:28;1.80;;;1.20;;
13693;SDS011;6919;52.344;14.518;2023-08-24T14:06:57;1.55;;;1.30;;
13693;SDS011;6919;52.344;14.518;2023-08-24T14:09:26;1.55;;;1.33;;
13693;SDS011;6919;52.344;14.518;2023-08-24T14:11:55;3.83;;;1.13;;
13693;SDS011;6919;52.344;14.518;2023-08-24T14:14:23;1.20;;;1.10;;
13693;SDS011;6919;52.344;14.518;2023-08-24T14:16:55;1.33;;;1.13;;
13693;SDS011;6919;52.344;14.518;2023-08-24T14:19:24;1.33;;;1.23;;
13693;SDS011;6919;52.344;14.518;2023-08-24T14:21:53;1.30;;;1.20;;
13693;SDS011;6919;52.344;14.518;2023-08-24T14:24:22;2.25;;;1.70;;
13693;SDS011;6919;52.344;14.518;2023-08-24T14:26:54;3.33;;;1.60;;
13693;SDS011;6919;52.344;14.518;2023-08-24T14:29:23;1.60;;;1.50;;
13693;SDS011;6919;52.344;14.518;2023-08-24T14:31:51;1.42;;;1.30;;
13693;SDS011;6919;52.344;14.518;2023-08-24T14:34:19;1.30;;;1.20;;
13693;SDS011;6919;52.344;14.518;2023-08-24T14:36:48;1.73;;;1.50;;
13693;SDS011;6919;52.344;14.518;2023-08-24T14:39:16;1.90;;;1.50;;
13693;SDS011;6919;52.344;14.518;2023-08-24T14:41:44;1.95;;;1.40;;
13693;SDS011;6919;52.344;14.518;2023-08-24T14:44:14;1.83;;;1.40;;
13693;SDS011;6919;52.344;14.518;2023-08-24T14:46:42;1.80;;;1.48;;
13693;SDS011;6919;52.344;14.518;2023-08-24T14:49:10;1.65;;;1.17;;
13693;SDS011;6919;52.344;14.518;2023-08-24T14:51:44;1.58;;;1.42;;
13693;SDS011;6919;52.344;14.518;2023-08-24T14:54:13;1.30;;;1.20;;
13693;SDS011;6919;52.344;14.518;2023-08-24T14:56:42;1.45;;;1.35;;
13693;SDS011;6919;52.344;14.518;2023-08-24T14:59:10;1.20;;;1.10;;
13693;SDS011;6919;52.344;14.518;2023-08-24T15:01:40;1.65;;;1.27;;
13693;SDS011;6919;52.344;14.518;2023-08-24T15:04:08;1.50;;;1.40;;